sensor_id;sensor_type;location;lat;lon;timestamp;pressure;altitude;pressure_sealevel;temperature;humidity
26937;BME280;14495;48.116;11.676;2023-07-20T00:02:20;95346.34;;;19.95;83.07
26937;BME280;14495;48.116;11.676;2023-07-20T00:04:45;95351.66;;;19.95;83.87
26937;BME280;14495;48.116;11.676;2023-07-20T00:07:12;95356.63;;;19.98;83.95
26937;BME280;14495;48.116;11.676;2023-07-20T00:09:37;95348.72;;;20.06;81.05
26937;BME280;14495;48.116;11.676;2023-07-20T00:12:03;95339.38;;;20.02;80.61
26937;BME280;14495;48.116;11.676;2023-07-20T00:14:28;95355.31;;;20.02;80.20
26937;BME280;14495;48.116;11.676;2023-07-20T00:16:55;95348.00;;;19.96;80.54
26937;BME280;14495;48.116;11.676;2023-07-20T00:19:23;95345.03;;;19.99;80.89
26937;BME280;14495;48.116;11.676;2023-07-20T00:21:49;95339.38;;;19.94;80.78
26937;BME280;14495;48.116;11.676;2023-07-20T00:24:15;95347.66;;;19.91;81.77
26937;BME280;14495;48.116;11.676;2023-07-20T00:26:40;95345.00;;;19.91;80.84
26937;BME280;14495;48.116;11.676;2023-07-20T00:29:06;95351.75;;;19.85;81.69
26937;BME280;14495;48.116;11.676;2023-07-20T00:31:31;95353.56;;;19.77;81.63
26937;BME280;14495;48.116;11.676;2023-07-20T00:33:59;95358.47;;;19.72;83.45
26937;BME280;14495;48.116;11.676;2023-07-20T00:36:24;95355.63;;;19.65;84.48
26937;BME280;14495;48.116;11.676;2023-07-20T00:38:50;95366.34;;;19.55;85.34
26937;BME280;14495;48.116;11.676;2023-07-20T00:41:15;95361.50;;;19.50;84.12
26937;BME280;14495;48.116;11.676;2023-07-20T00:43:40;95371.94;;;19.52;85.17
26937;BME280;14495;48.116;11.676;2023-07-20T00:46:06;95366.66;;;19.52;86.24
26937;BME280;14495;48.116;11.676;2023-07-20T00:48:31;95377.09;;;19.54;86.60
26937;BME280;14495;48.116;11.676;2023-07-20T00:50:59;95372.97;;;19.59;86.17
26937;BME280;14495;48.116;11.676;2023-07-20T00:53:25;95373.28;;;19.56;86.06
26937;BME280;14495;48.116;11.676;2023-07-20T00:55:51;95361.88;;;19.56;85.22
26937;BME280;14495;48.116;11.676;2023-07-20T00:58:17;95372.34;;;19.65;87.17
26937;BME280;14495;48.116;11.676;2023-07-20T01:00:42;95361.44;;;19.68;85.95
26937;BME280;14495;48.116;11.676;2023-07-20T01:03:07;95363.78;;;19.72;85.83
26937;BME280;14495;48.116;11.676;2023-07-20T01:08:35;95387.13;;;19.68;85.50
26937;BME280;14495;48.116;11.676;2023-07-20T01:11:17;95384.31;;;19.69;88.13
26937;BME280;14495;48.116;11.676;2023-07-20T01:13:46;95378.34;;;19.67;85.24
26937;BME280;14495;48.116;11.676;2023-07-20T01:16:12;95371.72;;;19.72;85.78
26937;BME280;14495;48.116;11.676;2023-07-20T01:18:37;95368.88;;;19.65;88.59
26937;BME280;14495;48.116;11.676;2023-07-20T01:21:06;95374.66;;;19.60;88.92
26937;BME280;14495;48.116;11.676;2023-07-20T01:29:41;95367.94;;;19.48;89.54
26937;BME280;14495;48.116;11.676;2023-07-20T01:32:09;95370.03;;;19.62;88.63
26937;BME280;14495;48.116;11.676;2023-07-20T01:34:35;95363.72;;;19.63;92.95
26937;BME280;14495;48.116;11.676;2023-07-20T01:37:02;95365.53;;;19.55;90.69
26937;BME280;14495;48.116;11.676;2023-07-20T01:39:28;95366.34;;;19.55;89.99
26937;BME280;14495;48.116;11.676;2023-07-20T01:41:54;95369.00;;;19.55;90.90
26937;BME280;14495;48.116;11.676;2023-07-20T01:44:20;95366.19;;;19.57;90.82
26937;BME280;14495;48.116;11.676;2023-07-20T01:46:45;95372.63;;;19.54;91.10
26937;BME280;14495;48.116;11.676;2023-07-20T01:49:11;95373.63;;;19.53;94.83
26937;BME280;14495;48.116;11.676;2023-07-20T01:51:36;95366.66;;;19.52;93.25
26937;BME280;14495;48.116;11.676;2023-07-20T01:54:01;95373.25;;;19.48;96.46
26937;BME280;14495;48.116;11.676;2023-07-20T01:56:27;95362.66;;;19.48;95.71
26937;BME280;14495;48.116;11.676;2023-07-20T01:58:52;95372.06;;;19.42;94.74
26937;BME280;14495;48.116;11.676;2023-07-20T02:01:18;95367.22;;;19.38;98.58
26937;BME280;14495;48.116;11.676;2023-07-20T02:03:43;95372.19;;;19.33;96.64
26937;BME280;14495;48.116;11.676;2023-07-20T02:06:08;95365.88;;;19.34;94.94
26937;BME280;14495;48.116;11.676;2023-07-20T02:08:34;95377.47;;;19.33;96.82
26937;BME280;14495;48.116;11.676;2023-07-20T02:11:07;95376.94;;;19.29;97.12
26937;BME280;14495;48.116;11.676;2023-07-20T02:13:35;95371.50;;;19.30;96.11
26937;BME280;14495;48.116;11.676;2023-07-20T02:16:01;95371.94;;;19.26;96.71
26937;BME280;14495;48.116;11.676;2023-07-20T02:18:26;95379.75;;;19.27;98.23
26937;BME280;14495;48.116;11.676;2023-07-20T02:20:53;95377.41;;;19.24;96.87
26937;BME280;14495;48.116;11.676;2023-07-20T02:23:19;95375.59;;;19.25;97.71
26937;BME280;14495;48.116;11.676;2023-07-20T02:25:44;95371.44;;;19.22;98.86
26937;BME280;14495;48.116;11.676;2023-07-20T02:28:13;95374.72;;;19.16;96.64
26937;BME280;14495;48.116;11.676;2023-07-20T02:30:38;95372.06;;;19.16;97.99
26937;BME280;14495;48.116;11.676;2023-07-20T02:33:04;95367.06;;;19.13;98.51
26937;BME280;14495;48.116;11.676;2023-07-20T02:35:31;95384.09;;;19.10;97.58
26937;BME280;14495;48.116;11.676;2023-07-20T02:37:57;95380.09;;;19.06;97.79
26937;BME280;14495;48.116;11.676;2023-07-20T02:40:22;95364.38;;;19.05;96.90
26937;BME280;14495;48.116;11.676;2023-07-20T02:42:48;95370.13;;;19.00;98.46
26937;BME280;14495;48.116;11.676;2023-07-20T02:45:13;95372.09;;;18.98;98.50
26937;BME280;14495;48.116;11.676;2023-07-20T02:47:38;95369.44;;;18.98;98.20
26937;BME280;14495;48.116;11.676;2023-07-20T02:50:07;95374.72;;;18.98;99.36
26937;BME280;14495;48.116;11.676;2023-07-20T02:52:35;95367.09;;;18.95;100.00
26937;BME280;14495;48.116;11.676;2023-07-20T02:55:00;95381.47;;;18.92;97.16
26937;BME280;14495;48.116;11.676;2023-07-20T02:57:26;95375.22;;;18.93;98.44
26937;BME280;14495;48.116;11.676;2023-07-20T02:59:52;95390.75;;;18.97;100.00
26937;BME280;14495;48.116;11.676;2023-07-20T03:02:20;95397.75;;;18.98;97.57
26937;BME280;14495;48.116;11.676;2023-07-20T03:04:48;95419.06;;;18.96;98.24
26937;BME280;14495;48.116;11.676;2023-07-20T03:07:16;95415.28;;;18.81;100.00
26937;BME280;14495;48.116;11.676;2023-07-20T03:09:41;95412.38;;;18.56;100.00
26937;BME280;14495;48.116;11.676;2023-07-20T03:12:07;95411.16;;;18.32;100.00
26937;BME280;14495;48.116;11.676;2023-07-20T03:14:32;95402.63;;;18.11;100.00
26937;BME280;14495;48.116;11.676;2023-07-20T03:16:58;95403.78;;;17.99;100.00
26937;BME280;14495;48.116;11.676;2023-07-20T03:19:23;95417.50;;;17.74;100.00
26937;BME280;14495;48.116;11.676;2023-07-20T03:21:49;95407.50;;;17.68;100.00
26937;BME280;14495;48.116;11.676;2023-07-20T03:24:14;95411.97;;;17.58;100.00
26937;BME280;14495;48.116;11.676;2023-07-20T03:26:40;95416.19;;;17.51;100.00
26937;BME280;14495;48.116;11.676;2023-07-20T03:29:05;95420.63;;;17.50;100.00
26937;BME280;14495;48.116;11.676;2023-07-20T03:31:31;95416.47;;;17.48;100.00
26937;BME280;14495;48.116;11.676;2023-07-20T03:33:57;95427.75;;;17.40;100.00
26937;BME280;14495;48.116;11.676;2023-07-20T03:36:22;95446.41;;;17.29;100.00
26937;BME280;14495;48.116;11.676;2023-07-20T03:38:48;95452.53;;;17.10;100.00
26937;BME280;14495;48.116;11.676;2023-07-20T03:41:13;95441.16;;;16.99;100.00
26937;BME280;14495;48.116;11.676;2023-07-20T03:43:40;95451.28;;;16.94;100.00
26937;BME280;14495;48.116;11.676;2023-07-20T03:46:06;95441.78;;;16.82;100.00
26937;BME280;14495;48.116;11.676;2023-07-20T03:48:31;95454.16;;;16.72;100.00
26937;BME280;14495;48.116;11.676;2023-07-20T03:50:59;95457.31;;;16.66;100.00
26937;BME280;14495;48.116;11.676;2023-07-20T03:53:28;95445.69;;;16.58;100.00
26937;BME280;14495;48.116;11.676;2023-07-20T03:55:55;95444.00;;;16.67;100.00
26937;BME280;14495;48.116;11.676;2023-07-20T03:58:21;95442.22;;;16.68;100.00
26937;BME280;14495;48.116;11.676;2023-07-20T04:00:48;95448.19;;;16.70;100.00
26937;BME280;14495;48.116;11.676;2023-07-20T04:03:14;95448.31;;;16.78;100.00
26937;BME280;14495;48.116;11.676;2023-07-20T04:05:40;95452.34;;;16.82;100.00
26937;BME280;14495;48.116;11.676;2023-07-20T04:08:05;95454.44;;;16.69;100.00
26937;BME280;14495;48.116;11.676;2023-07-20T04:10:31;95455.13;;;16.71;100.00
26937;BME280;14495;48.116;11.676;2023-07-20T04:12:56;95463.28;;;16.58;100.00
26937;BME280;14495;48.116;11.676;2023-07-20T04:15:24;95464.84;;;16.60;100.00
26937;BME280;14495;48.116;11.676;2023-07-20T04:17:49;95457.88;;;16.59;100.00
26937;BME280;14495;48.116;11.676;2023-07-20T04:20:14;95447.34;;;16.69;100.00
26937;BME280;14495;48.116;11.676;2023-07-20T04:22:40;95447.06;;;16.72;100.00
26937;BME280;14495;48.116;11.676;2023-07-20T04:25:05;95451.78;;;16.69;100.00
26937;BME280;14495;48.116;11.676;2023-07-20T04:27:31;95452.47;;;16.71;100.00
26937;BME280;14495;48.116;11.676;2023-07-20T04:29:58;95445.94;;;16.65;100.00
26937;BME280;14495;48.116;11.676;2023-07-20T04:32:26;95460.81;;;16.76;100.00
26937;BME280;14495;48.116;11.676;2023-07-20T04:34:51;95452.66;;;16.79;100.00
26937;BME280;14495;48.116;11.676;2023-07-20T04:37:16;95460.25;;;16.82;100.00
26937;BME280;14495;48.116;11.676;2023-07-20T04:39:42;95454.75;;;16.85;100.00
26937;BME280;14495;48.116;11.676;2023-07-20T04:42:07;95460.03;;;16.85;100.00
26937;BME280;14495;48.116;11.676;2023-07-20T04:44:32;95458.50;;;16.92;100.00
26937;BME280;14495;48.116;11.676;2023-07-20T04:46:58;95464.63;;;16.83;100.00
26937;BME280;14495;48.116;11.676;2023-07-20T04:49:23;95459.06;;;16.96;100.00
26937;BME280;14495;48.116;11.676;2023-07-20T04:51:48;95465.16;;;17.06;100.00
26937;BME280;14495;48.116;11.676;2023-07-20T04:54:14;95458.63;;;17.00;100.00
26937;BME280;14495;48.116;11.676;2023-07-20T04:56:39;95456.69;;;17.22;100.00
26937;BME280;14495;48.116;11.676;2023-07-20T04:59:05;95465.44;;;17.23;100.00
26937;BME280;14495;48.116;11.676;2023-07-20T05:01:30;95468.22;;;17.31;100.00
26937;BME280;14495;48.116;11.676;2023-07-20T05:03:56;95459.31;;;17.42;100.00
26937;BME280;14495;48.116;11.676;2023-07-20T05:06:21;95472.91;;;17.56;100.00
26937;BME280;14495;48.116;11.676;2023-07-20T05:08:46;95465.22;;;17.63;100.00
26937;BME280;14495;48.116;11.676;2023-07-20T05:11:12;95473.75;;;17.57;100.00
26937;BME280;14495;48.116;11.676;2023-07-20T05:13:37;95470.09;;;17.58;100.00
26937;BME280;14495;48.116;11.676;2023-07-20T05:16:03;95476.78;;;17.62;100.00
26937;BME280;14495;48.116;11.676;2023-07-20T05:18:29;95471.63;;;17.70;100.00
26937;BME280;14495;48.116;11.676;2023-07-20T05:20:54;95470.06;;;17.77;100.00
26937;BME280;14495;48.116;11.676;2023-07-20T05:23:20;95469.63;;;17.82;100.00
26937;BME280;14495;48.116;11.676;2023-07-20T05:25:46;95477.56;;;17.92;100.00
26937;BME280;14495;48.116;11.676;2023-07-20T05:28:11;95465.03;;;17.94;100.00
26937;BME280;14495;48.116;11.676;2023-07-20T05:30:37;95470.88;;;17.98;100.00
26937;BME280;14495;48.116;11.676;2023-07-20T05:33:02;95472.78;;;18.05;100.00
26937;BME280;14495;48.116;11.676;2023-07-20T05:35:27;95469.00;;;18.08;100.00
26937;BME280;14495;48.116;11.676;2023-07-20T05:37:53;95473.47;;;18.07;100.00
26937;BME280;14495;48.116;11.676;2023-07-20T05:40:18;95468.63;;;18.03;100.00
26937;BME280;14495;48.116;11.676;2023-07-20T05:42:45;95471.38;;;18.11;100.00
26937;BME280;14495;48.116;11.676;2023-07-20T05:45:12;95474.66;;;18.23;100.00
26937;BME280;14495;48.116;11.676;2023-07-20T05:47:37;95473.09;;;18.30;100.00
26937;BME280;14495;48.116;11.676;2023-07-20T05:50:03;95471.53;;;18.37;100.00
26937;BME280;14495;48.116;11.676;2023-07-20T05:52:29;95473.34;;;18.37;100.00
26937;BME280;14495;48.116;11.676;2023-07-20T05:54:54;95474.28;;;18.45;100.00
26937;BME280;14495;48.116;11.676;2023-07-20T05:57:20;95476.41;;;18.60;100.00
26937;BME280;14495;48.116;11.676;2023-07-20T05:59:46;95475.03;;;18.55;100.00
26937;BME280;14495;48.116;11.676;2023-07-20T06:02:11;95478.63;;;18.64;100.00
26937;BME280;14495;48.116;11.676;2023-07-20T06:04:39;95477.94;;;18.62;100.00
26937;BME280;14495;48.116;11.676;2023-07-20T06:07:04;95482.97;;;18.83;100.00
26937;BME280;14495;48.116;11.676;2023-07-20T06:09:32;95481.25;;;18.92;100.00
26937;BME280;14495;48.116;11.676;2023-07-20T06:12:00;95480.56;;;19.08;100.00
26937;BME280;14495;48.116;11.676;2023-07-20T06:14:26;95482.91;;;18.93;100.00
26937;BME280;14495;48.116;11.676;2023-07-20T06:16:54;95482.38;;;19.25;100.00
26937;BME280;14495;48.116;11.676;2023-07-20T06:19:19;95485.69;;;19.27;100.00
26937;BME280;14495;48.116;11.676;2023-07-20T06:21:44;95488.66;;;19.68;100.00
26937;BME280;14495;48.116;11.676;2023-07-20T06:24:10;95483.91;;;19.98;100.00
26937;BME280;14495;48.116;11.676;2023-07-20T06:26:35;95482.41;;;20.30;100.00
26937;BME280;14495;48.116;11.676;2023-07-20T06:29:07;95481.13;;;20.34;100.00
26937;BME280;14495;48.116;11.676;2023-07-20T06:31:36;95485.41;;;20.35;100.00
26937;BME280;14495;48.116;11.676;2023-07-20T06:34:02;95483.34;;;21.14;100.00
26937;BME280;14495;48.116;11.676;2023-07-20T06:36:27;95480.03;;;21.12;100.00
26937;BME280;14495;48.116;11.676;2023-07-20T06:38:53;95475.69;;;21.11;100.00
26937;BME280;14495;48.116;11.676;2023-07-20T06:41:19;95486.44;;;20.77;100.00
26937;BME280;14495;48.116;11.676;2023-07-20T06:43:45;95481.50;;;20.47;100.00
26937;BME280;14495;48.116;11.676;2023-07-20T06:46:10;95475.19;;;20.48;100.00
26937;BME280;14495;48.116;11.676;2023-07-20T06:48:36;95484.81;;;20.50;100.00
26937;BME280;14495;48.116;11.676;2023-07-20T06:51:01;95485.63;;;20.42;100.00
26937;BME280;14495;48.116;11.676;2023-07-20T06:53:27;95482.75;;;20.27;97.05
26937;BME280;14495;48.116;11.676;2023-07-20T06:55:53;95481.50;;;20.47;100.00
26937;BME280;14495;48.116;11.676;2023-07-20T06:58:18;95473.84;;;20.44;100.00
26937;BME280;14495;48.116;11.676;2023-07-20T07:00:44;95482.47;;;20.81;100.00
26937;BME280;14495;48.116;11.676;2023-07-20T07:03:10;95484.19;;;21.80;97.19
26937;BME280;14495;48.116;11.676;2023-07-20T07:05:36;95480.59;;;23.08;91.43
26937;BME280;14495;48.116;11.676;2023-07-20T07:08:03;95473.50;;;24.00;86.36
26937;BME280;14495;48.116;11.676;2023-07-20T07:10:29;95475.84;;;24.33;85.23
26937;BME280;14495;48.116;11.676;2023-07-20T07:12:54;95467.06;;;23.79;82.55
26937;BME280;14495;48.116;11.676;2023-07-20T07:15:19;95472.88;;;23.98;82.57
26937;BME280;14495;48.116;11.676;2023-07-20T07:17:44;95479.59;;;24.68;76.03
26937;BME280;14495;48.116;11.676;2023-07-20T07:20:10;95479.88;;;24.28;75.99
26937;BME280;14495;48.116;11.676;2023-07-20T07:22:35;95479.06;;;26.02;68.50
26937;BME280;14495;48.116;11.676;2023-07-20T07:25:01;95471.91;;;27.81;61.77
26937;BME280;14495;48.116;11.676;2023-07-20T07:27:28;95479.38;;;29.36;58.31
26937;BME280;14495;48.116;11.676;2023-07-20T07:29:53;95474.19;;;30.16;52.97
26937;BME280;14495;48.116;11.676;2023-07-20T07:32:19;95469.53;;;31.46;49.55
26937;BME280;14495;48.116;11.676;2023-07-20T07:34:44;95476.00;;;31.99;49.65
26937;BME280;14495;48.116;11.676;2023-07-20T07:37:11;95480.09;;;31.36;52.99
26937;BME280;14495;48.116;11.676;2023-07-20T07:39:37;95476.13;;;31.92;53.10
26937;BME280;14495;48.116;11.676;2023-07-20T07:42:02;95484.47;;;31.18;47.59
26937;BME280;14495;48.116;11.676;2023-07-20T07:44:28;95488.63;;;29.78;49.37
26937;BME280;14495;48.116;11.676;2023-07-20T07:46:53;95486.28;;;27.26;49.05
26937;BME280;14495;48.116;11.676;2023-07-20T07:49:21;95489.31;;;25.70;49.91
26937;BME280;14495;48.116;11.676;2023-07-20T07:51:46;95479.34;;;24.99;53.05
26937;BME280;14495;48.116;11.676;2023-07-20T07:54:11;95473.66;;;26.23;52.46
26937;BME280;14495;48.116;11.676;2023-07-20T07:56:37;95488.53;;;27.16;50.18
26937;BME280;14495;48.116;11.676;2023-07-20T07:59:02;95482.25;;;25.91;50.53
26937;BME280;14495;48.116;11.676;2023-07-20T08:01:31;95481.25;;;26.20;50.79
26937;BME280;14495;48.116;11.676;2023-07-20T08:03:56;95486.88;;;25.97;51.65
26937;BME280;14495;48.116;11.676;2023-07-20T08:06:22;95486.50;;;25.14;50.33
26937;BME280;14495;48.116;11.676;2023-07-20T08:08:49;95492.69;;;24.63;53.11
26937;BME280;14495;48.116;11.676;2023-07-20T08:11:14;95487.44;;;24.10;55.45
26937;BME280;14495;48.116;11.676;2023-07-20T08:13:39;95489.53;;;23.62;56.57
26937;BME280;14495;48.116;11.676;2023-07-20T08:16:05;95499.44;;;23.53;56.53
26937;BME280;14495;48.116;11.676;2023-07-20T08:18:30;95492.53;;;23.35;55.67
26937;BME280;14495;48.116;11.676;2023-07-20T08:20:56;95504.56;;;23.08;58.13
26937;BME280;14495;48.116;11.676;2023-07-20T08:23:22;95503.03;;;22.83;56.59
26937;BME280;14495;48.116;11.676;2023-07-20T08:25:47;95492.38;;;22.83;56.16
26937;BME280;14495;48.116;11.676;2023-07-20T08:28:14;95493.28;;;23.52;58.27
26937;BME280;14495;48.116;11.676;2023-07-20T08:33:06;95500.34;;;24.66;57.58
26937;BME280;14495;48.116;11.676;2023-07-20T08:35:32;95490.94;;;24.55;59.08
26937;BME280;14495;48.116;11.676;2023-07-20T08:37:57;95497.19;;;24.47;60.13
26937;BME280;14495;48.116;11.676;2023-07-20T08:40:22;95496.56;;;24.30;58.15
26937;BME280;14495;48.116;11.676;2023-07-20T08:42:49;95482.63;;;24.05;56.89
26937;BME280;14495;48.116;11.676;2023-07-20T08:45:16;95489.72;;;24.13;59.28
26937;BME280;14495;48.116;11.676;2023-07-20T08:47:45;95488.53;;;24.30;56.63
26937;BME280;14495;48.116;11.676;2023-07-20T08:50:14;95483.44;;;24.21;56.81
26937;BME280;14495;48.116;11.676;2023-07-20T08:52:41;95490.19;;;24.17;58.83
26937;BME280;14495;48.116;11.676;2023-07-20T08:55:06;95492.09;;;23.70;56.90
26937;BME280;14495;48.116;11.676;2023-07-20T08:57:33;95488.06;;;23.74;56.35
26937;BME280;14495;48.116;11.676;2023-07-20T09:00:08;95480.88;;;23.98;56.36
26937;BME280;14495;48.116;11.676;2023-07-20T09:02:39;95488.88;;;23.98;56.74
26937;BME280;14495;48.116;11.676;2023-07-20T09:05:10;95489.00;;;24.34;56.29
26937;BME280;14495;48.116;11.676;2023-07-20T09:07:36;95485.16;;;23.84;57.75
26937;BME280;14495;48.116;11.676;2023-07-20T09:10:02;95490.06;;;23.80;58.03
26937;BME280;14495;48.116;11.676;2023-07-20T09:12:32;95488.44;;;24.09;57.90
26937;BME280;14495;48.116;11.676;2023-07-20T09:15:00;95485.75;;;24.09;58.43
26937;BME280;14495;48.116;11.676;2023-07-20T09:17:26;95485.59;;;24.55;56.01
26937;BME280;14495;48.116;11.676;2023-07-20T09:19:52;95480.75;;;23.91;58.00
26937;BME280;14495;48.116;11.676;2023-07-20T09:22:17;95479.97;;;24.20;55.58
26937;BME280;14495;48.116;11.676;2023-07-20T09:24:44;95471.13;;;24.64;55.13
26937;BME280;14495;48.116;11.676;2023-07-20T09:27:09;95472.25;;;24.55;54.07
26937;BME280;14495;48.116;11.676;2023-07-20T09:29:47;95470.84;;;24.44;54.80
26937;BME280;14495;48.116;11.676;2023-07-20T09:32:13;95474.09;;;24.40;55.27
26937;BME280;14495;48.116;11.676;2023-07-20T09:34:43;95466.72;;;24.12;55.80
26937;BME280;14495;48.116;11.676;2023-07-20T09:37:08;95477.56;;;24.10;55.59
26937;BME280;14495;48.116;11.676;2023-07-20T09:39:42;95468.94;;;23.70;58.70
26937;BME280;14495;48.116;11.676;2023-07-20T09:42:09;95467.91;;;23.57;58.04
26937;BME280;14495;48.116;11.676;2023-07-20T09:44:36;95469.31;;;23.67;56.56
26937;BME280;14495;48.116;11.676;2023-07-20T09:47:03;95469.84;;;24.16;58.15
26937;BME280;14495;48.116;11.676;2023-07-20T09:49:28;95474.69;;;23.82;57.83
26937;BME280;14495;48.116;11.676;2023-07-20T09:51:57;95474.78;;;23.89;57.40
26937;BME280;14495;48.116;11.676;2023-07-20T09:54:24;95472.16;;;23.66;54.86
26937;BME280;14495;48.116;11.676;2023-07-20T09:56:50;95466.78;;;23.51;56.83
26937;BME280;14495;48.116;11.676;2023-07-20T09:59:17;95469.19;;;23.61;57.54
26937;BME280;14495;48.116;11.676;2023-07-20T10:01:43;95468.38;;;23.37;57.08
26937;BME280;14495;48.116;11.676;2023-07-20T10:04:11;95470.13;;;23.68;57.77
26937;BME280;14495;48.116;11.676;2023-07-20T10:06:39;95465.97;;;23.88;56.75
26937;BME280;14495;48.116;11.676;2023-07-20T10:09:07;95464.03;;;23.82;56.58
26937;BME280;14495;48.116;11.676;2023-07-20T10:11:36;95462.56;;;23.95;55.25
26937;BME280;14495;48.116;11.676;2023-07-20T10:14:04;95466.78;;;24.48;57.22
26937;BME280;14495;48.116;11.676;2023-07-20T10:16:39;95455.28;;;24.99;53.16
26937;BME280;14495;48.116;11.676;2023-07-20T10:22:05;95453.09;;;25.96;54.25
26937;BME280;14495;48.116;11.676;2023-07-20T10:24:33;95452.28;;;25.74;53.19
26937;BME280;14495;48.116;11.676;2023-07-20T10:27:00;95444.06;;;25.97;51.15
26937;BME280;14495;48.116;11.676;2023-07-20T10:29:26;95452.47;;;25.72;55.50
26937;BME280;14495;48.116;11.676;2023-07-20T10:31:53;95459.78;;;25.57;53.88
26937;BME280;14495;48.116;11.676;2023-07-20T10:34:19;95453.19;;;25.59;54.02
26937;BME280;14495;48.116;11.676;2023-07-20T10:36:46;95447.44;;;25.34;54.48
26937;BME280;14495;48.116;11.676;2023-07-20T10:39:26;95459.31;;;24.74;52.27
26937;BME280;14495;48.116;11.676;2023-07-20T10:42:08;95446.78;;;25.11;53.79
26937;BME280;14495;48.116;11.676;2023-07-20T10:44:36;95440.41;;;25.12;54.22
26937;BME280;14495;48.116;11.676;2023-07-20T10:47:03;95444.09;;;24.23;54.85
26937;BME280;14495;48.116;11.676;2023-07-20T10:49:34;95444.97;;;24.75;53.48
26937;BME280;14495;48.116;11.676;2023-07-20T10:52:04;95437.25;;;24.86;54.43
26937;BME280;14495;48.116;11.676;2023-07-20T10:56:56;95435.50;;;25.15;55.36
26937;BME280;14495;48.116;11.676;2023-07-20T11:01:57;95440.34;;;25.05;52.79
26937;BME280;14495;48.116;11.676;2023-07-20T11:04:43;95443.06;;;24.90;54.89
26937;BME280;14495;48.116;11.676;2023-07-20T11:07:08;95437.94;;;25.10;52.55
26937;BME280;14495;48.116;11.676;2023-07-20T11:09:35;95426.38;;;25.09;51.83
26937;BME280;14495;48.116;11.676;2023-07-20T11:14:43;95411.41;;;25.30;53.72
26937;BME280;14495;48.116;11.676;2023-07-20T11:17:15;95419.22;;;26.10;53.79
26937;BME280;14495;48.116;11.676;2023-07-20T11:19:41;95411.63;;;26.20;52.10
26937;BME280;14495;48.116;11.676;2023-07-20T11:22:07;95415.38;;;26.26;51.63
26937;BME280;14495;48.116;11.676;2023-07-20T11:24:33;95412.72;;;26.67;53.52
26937;BME280;14495;48.116;11.676;2023-07-20T11:26:59;95421.25;;;25.79;53.18
26937;BME280;14495;48.116;11.676;2023-07-20T11:29:26;95408.81;;;25.22;53.62
26937;BME280;14495;48.116;11.676;2023-07-20T11:31:52;95408.34;;;26.18;51.17
26937;BME280;14495;48.116;11.676;2023-07-20T11:34:19;95407.09;;;26.20;50.43
26937;BME280;14495;48.116;11.676;2023-07-20T11:36:46;95408.09;;;25.84;53.04
26937;BME280;14495;48.116;11.676;2023-07-20T11:39:16;95406.84;;;25.80;53.25
26937;BME280;14495;48.116;11.676;2023-07-20T11:41:52;95411.03;;;25.90;51.68
26937;BME280;14495;48.116;11.676;2023-07-20T11:44:18;95405.84;;;26.10;53.32
26937;BME280;14495;48.116;11.676;2023-07-20T11:46:44;95399.81;;;26.49;52.88
26937;BME280;14495;48.116;11.676;2023-07-20T11:49:10;95407.09;;;26.20;49.78
26937;BME280;14495;48.116;11.676;2023-07-20T11:51:36;95400.44;;;26.51;50.71
26937;BME280;14495;48.116;11.676;2023-07-20T11:54:03;95387.00;;;26.38;49.74
26937;BME280;14495;48.116;11.676;2023-07-20T11:56:30;95393.31;;;26.23;50.81
26937;BME280;14495;48.116;11.676;2023-07-20T11:58:57;95382.22;;;26.81;52.69
26937;BME280;14495;48.116;11.676;2023-07-20T12:01:25;95378.13;;;26.31;49.68
26937;BME280;14495;48.116;11.676;2023-07-20T12:03:55;95372.16;;;26.35;52.14
26937;BME280;14495;48.116;11.676;2023-07-20T12:06:23;95372.75;;;26.31;50.99
26937;BME280;14495;48.116;11.676;2023-07-20T12:08:54;95365.28;;;25.84;49.10
26937;BME280;14495;48.116;11.676;2023-07-20T12:11:34;95362.81;;;26.18;51.86
26937;BME280;14495;48.116;11.676;2023-07-20T12:14:00;95368.84;;;26.88;49.57
26937;BME280;14495;48.116;11.676;2023-07-20T12:16:29;95369.44;;;26.90;49.83
26937;BME280;14495;48.116;11.676;2023-07-20T12:19:13;95375.31;;;27.27;50.45
26937;BME280;14495;48.116;11.676;2023-07-20T12:21:41;95351.78;;;27.56;50.90
26937;BME280;14495;48.116;11.676;2023-07-20T12:24:08;95360.22;;;27.66;49.83
26937;BME280;14495;48.116;11.676;2023-07-20T12:26:37;95361.88;;;27.67;49.24
26937;BME280;14495;48.116;11.676;2023-07-20T12:29:02;95360.41;;;27.71;46.45
26937;BME280;14495;48.116;11.676;2023-07-20T12:31:33;95363.69;;;27.07;48.73
26937;BME280;14495;48.116;11.676;2023-07-20T12:34:01;95347.66;;;27.27;48.17
26937;BME280;14495;48.116;11.676;2023-07-20T12:36:26;95346.81;;;27.53;50.63
26937;BME280;14495;48.116;11.676;2023-07-20T12:38:52;95343.06;;;27.74;50.68
26937;BME280;14495;48.116;11.676;2023-07-20T12:41:17;95335.53;;;28.16;48.65
26937;BME280;14495;48.116;11.676;2023-07-20T12:43:44;95341.09;;;28.21;48.26
26937;BME280;14495;48.116;11.676;2023-07-20T12:46:11;95336.44;;;26.96;48.21
26937;BME280;14495;48.116;11.676;2023-07-20T12:48:38;95344.25;;;26.78;50.18
26937;BME280;14495;48.116;11.676;2023-07-20T12:51:06;95339.72;;;26.72;48.79
26937;BME280;14495;48.116;11.676;2023-07-20T12:53:33;95338.22;;;26.49;50.87
26937;BME280;14495;48.116;11.676;2023-07-20T12:55:59;95330.47;;;26.81;48.38
26937;BME280;14495;48.116;11.676;2023-07-20T12:58:25;95324.94;;;26.89;51.93
26937;BME280;14495;48.116;11.676;2023-07-20T13:00:53;95321.63;;;27.00;48.26
26937;BME280;14495;48.116;11.676;2023-07-20T13:03:19;95322.44;;;27.08;47.15
26937;BME280;14495;48.116;11.676;2023-07-20T13:05:45;95322.69;;;26.31;48.50
26937;BME280;14495;48.116;11.676;2023-07-20T13:08:14;95323.47;;;26.80;48.47